Terminal Aerodrome Forecast
Issued by NWS

Home | Current Version | Previous Version | Text Only | Print | Product List | Glossary On
Versions: 1 2 3 4 5 6 7 8 9 10 11 12 13 14 15 16
263
FTUS43 KGRB 270527
TAFCWA
TAF
KCWA 270527Z 2706/2806 23006KT P6SM SCT100 SCT250
     FM270800 VRB03KT P6SM VCSH SCT070 BKN120
      TEMPO 2708/2712 5SM BR
     FM271200 29003KT P6SM VCSH SCT050 OVC100
     FM271900 36006KT P6SM VCSH BKN060 PROB30 2719/2724 4SM -SHRA
      BKN040
     FM280100 04004KT 4SM -SHRA BKN025 OVC040
      AMD LTD TO CLD VIS AND WIND TIL 271100=

USA.gov is the U.S. government's official web portal to all federal, state and local government web resources and services.